Terminal Aerodrome Forecast
Issued by NWS

Home | Current Version | Previous Version | Text Only | Print | Product List | Glossary On
Versions: 1 2 3 4 5 6 7 8 9 10 11 12 13 14 15 16 17 18
000
FTUS41 KPBZ 010500
TAFMGW
TAF
KMGW 010531Z 0106/0206 00000KT 3SM BR BKN035
      TEMPO 0106/0110 1/2SM FG SCT001
     FM011000 00000KT 2SM BR OVC005
     FM011400 04004KT 4SM BR BKN015
     FM011700 08005KT P6SM BKN050=

USA.gov is the U.S. government's official web portal to all federal, state and local government web resources and services.